sensor_id;sensor_type;location;lat;lon;timestamp;temperature;humidity
43143;DHT22;28750;59.842;17.584;2023-01-20T00:01:09;-2.30;99.90
43143;DHT22;28750;59.842;17.584;2023-01-20T00:03:40;-2.30;99.90
43143;DHT22;28750;59.842;17.584;2023-01-20T00:06:09;-2.20;99.90
43143;DHT22;28750;59.842;17.584;2023-01-20T00:08:36;-2.10;99.90
43143;DHT22;28750;59.842;17.584;2023-01-20T00:11:08;-2.10;99.90
43143;DHT22;28750;59.842;17.584;2023-01-20T00:13:36;-2.00;99.90
43143;DHT22;28750;59.842;17.584;2023-01-20T00:16:08;-1.90;99.90
43143;DHT22;28750;59.842;17.584;2023-01-20T00:18:36;-2.00;99.90
43143;DHT22;28750;59.842;17.584;2023-01-20T00:21:05;-1.90;99.90
43143;DHT22;28750;59.842;17.584;2023-01-20T00:23:32;-2.00;99.90
43143;DHT22;28750;59.842;17.584;2023-01-20T00:26:04;-2.00;99.90
43143;DHT22;28750;59.842;17.584;2023-01-20T00:28:32;-2.10;99.90
43143;DHT22;28750;59.842;17.584;2023-01-20T00:33:46;-1.90;99.90
43143;DHT22;28750;59.842;17.584;2023-01-20T00:36:15;-2.10;99.90
43143;DHT22;28750;59.842;17.584;2023-01-20T00:38:42;-2.00;99.90
43143;DHT22;28750;59.842;17.584;2023-01-20T00:41:10;-1.90;99.90
43143;DHT22;28750;59.842;17.584;2023-01-20T00:43:37;-1.90;99.90
43143;DHT22;28750;59.842;17.584;2023-01-20T00:46:05;-1.80;99.90
43143;DHT22;28750;59.842;17.584;2023-01-20T00:48:32;-1.80;99.90
43143;DHT22;28750;59.842;17.584;2023-01-20T00:51:00;-1.80;99.90
43143;DHT22;28750;59.842;17.584;2023-01-20T00:53:27;-1.90;99.90
43143;DHT22;28750;59.842;17.584;2023-01-20T00:55:54;-1.80;99.90
43143;DHT22;28750;59.842;17.584;2023-01-20T00:58:21;-1.80;99.90
43143;DHT22;28750;59.842;17.584;2023-01-20T01:00:49;-1.70;99.90
43143;DHT22;28750;59.842;17.584;2023-01-20T01:03:16;-1.70;99.90
43143;DHT22;28750;59.842;17.584;2023-01-20T01:05:44;-1.70;99.90
43143;DHT22;28750;59.842;17.584;2023-01-20T01:08:12;-1.70;99.90
43143;DHT22;28750;59.842;17.584;2023-01-20T01:10:39;-1.70;99.90
43143;DHT22;28750;59.842;17.584;2023-01-20T01:13:06;-1.70;99.90
43143;DHT22;28750;59.842;17.584;2023-01-20T01:15:33;-1.60;99.90
43143;DHT22;28750;59.842;17.584;2023-01-20T01:18:01;-1.70;99.90
43143;DHT22;28750;59.842;17.584;2023-01-20T01:20:28;-1.70;99.90
43143;DHT22;28750;59.842;17.584;2023-01-20T01:22:55;-1.70;99.90
43143;DHT22;28750;59.842;17.584;2023-01-20T01:25:22;-1.70;99.90
43143;DHT22;28750;59.842;17.584;2023-01-20T01:27:49;-1.70;99.90
43143;DHT22;28750;59.842;17.584;2023-01-20T01:30:16;-1.60;99.90
43143;DHT22;28750;59.842;17.584;2023-01-20T01:32:43;-1.60;99.90
43143;DHT22;28750;59.842;17.584;2023-01-20T01:35:10;-1.50;99.90
43143;DHT22;28750;59.842;17.584;2023-01-20T01:37:37;-1.50;99.90
43143;DHT22;28750;59.842;17.584;2023-01-20T01:40:04;-1.70;99.90
43143;DHT22;28750;59.842;17.584;2023-01-20T01:42:31;-1.70;99.90
43143;DHT22;28750;59.842;17.584;2023-01-20T01:47:39;-1.70;99.90
43143;DHT22;28750;59.842;17.584;2023-01-20T01:50:11;-1.50;99.90
43143;DHT22;28750;59.842;17.584;2023-01-20T01:52:42;-1.60;99.90
43143;DHT22;28750;59.842;17.584;2023-01-20T01:55:10;-1.70;99.90
43143;DHT22;28750;59.842;17.584;2023-01-20T01:57:38;-1.80;99.90
43143;DHT22;28750;59.842;17.584;2023-01-20T02:00:05;-2.00;99.90
43143;DHT22;28750;59.842;17.584;2023-01-20T02:02:32;-2.00;99.90
43143;DHT22;28750;59.842;17.584;2023-01-20T02:05:00;-1.90;99.90
43143;DHT22;28750;59.842;17.584;2023-01-20T02:07:28;-1.80;99.90
43143;DHT22;28750;59.842;17.584;2023-01-20T02:09:57;-1.80;99.90
43143;DHT22;28750;59.842;17.584;2023-01-20T02:12:25;-1.90;99.90
43143;DHT22;28750;59.842;17.584;2023-01-20T02:14:54;-1.90;99.90
43143;DHT22;28750;59.842;17.584;2023-01-20T02:32:24;-2.10;99.90
43143;DHT22;28750;59.842;17.584;2023-01-20T02:37:17;-2.20;99.90
43143;DHT22;28750;59.842;17.584;2023-01-20T02:39:54;-2.10;99.90
43143;DHT22;28750;59.842;17.584;2023-01-20T02:42:29;-2.10;99.90
43143;DHT22;28750;59.842;17.584;2023-01-20T02:45:12;-2.20;99.90
43143;DHT22;28750;59.842;17.584;2023-01-20T02:50:44;-2.00;99.90
43143;DHT22;28750;59.842;17.584;2023-01-20T02:53:16;-2.10;99.90
43143;DHT22;28750;59.842;17.584;2023-01-20T02:55:48;-1.80;99.90
43143;DHT22;28750;59.842;17.584;2023-01-20T03:01:13;-1.90;99.90
43143;DHT22;28750;59.842;17.584;2023-01-20T03:03:44;-2.00;99.90
43143;DHT22;28750;59.842;17.584;2023-01-20T03:06:21;-2.00;99.90
43143;DHT22;28750;59.842;17.584;2023-01-20T03:08:51;-2.10;99.90
43143;DHT22;28750;59.842;17.584;2023-01-20T03:11:19;-2.20;99.90
43143;DHT22;28750;59.842;17.584;2023-01-20T03:14:01;-2.00;99.90
43143;DHT22;28750;59.842;17.584;2023-01-20T03:16:30;-1.80;99.90
43143;DHT22;28750;59.842;17.584;2023-01-20T03:18:57;-1.80;99.90
43143;DHT22;28750;59.842;17.584;2023-01-20T03:21:24;-1.90;99.90
43143;DHT22;28750;59.842;17.584;2023-01-20T03:23:54;-1.70;99.90
43143;DHT22;28750;59.842;17.584;2023-01-20T03:26:23;-1.80;99.90
43143;DHT22;28750;59.842;17.584;2023-01-20T03:28:50;-1.90;99.90
43143;DHT22;28750;59.842;17.584;2023-01-20T03:31:53;-2.00;99.90
43143;DHT22;28750;59.842;17.584;2023-01-20T03:34:24;-2.00;99.90
43143;DHT22;28750;59.842;17.584;2023-01-20T03:36:53;-2.10;99.90
43143;DHT22;28750;59.842;17.584;2023-01-20T03:39:22;-2.10;99.90
43143;DHT22;28750;59.842;17.584;2023-01-20T03:47:31;-2.20;99.90
43143;DHT22;28750;59.842;17.584;2023-01-20T03:50:28;-2.20;99.90
43143;DHT22;28750;59.842;17.584;2023-01-20T03:53:08;-2.30;99.90
43143;DHT22;28750;59.842;17.584;2023-01-20T03:56:05;-2.40;99.90
43143;DHT22;28750;59.842;17.584;2023-01-20T03:58:37;-2.30;99.90
43143;DHT22;28750;59.842;17.584;2023-01-20T04:01:07;-2.50;99.90
43143;DHT22;28750;59.842;17.584;2023-01-20T04:03:39;-2.40;99.90
43143;DHT22;28750;59.842;17.584;2023-01-20T04:06:10;-2.30;99.90
43143;DHT22;28750;59.842;17.584;2023-01-20T04:08:45;-2.10;99.90
43143;DHT22;28750;59.842;17.584;2023-01-20T04:11:13;-2.20;99.90
43143;DHT22;28750;59.842;17.584;2023-01-20T04:13:40;-2.10;99.90
43143;DHT22;28750;59.842;17.584;2023-01-20T04:16:16;-2.20;99.90
43143;DHT22;28750;59.842;17.584;2023-01-20T04:18:49;-2.30;99.90
43143;DHT22;28750;59.842;17.584;2023-01-20T04:26:28;-2.50;99.90
43143;DHT22;28750;59.842;17.584;2023-01-20T04:28:55;-2.30;99.90
43143;DHT22;28750;59.842;17.584;2023-01-20T04:31:22;-2.30;99.90
43143;DHT22;28750;59.842;17.584;2023-01-20T04:33:49;-2.20;99.90
43143;DHT22;28750;59.842;17.584;2023-01-20T04:36:16;-2.50;99.90
43143;DHT22;28750;59.842;17.584;2023-01-20T04:38:43;-2.40;99.90
43143;DHT22;28750;59.842;17.584;2023-01-20T04:41:11;-2.30;99.90
43143;DHT22;28750;59.842;17.584;2023-01-20T04:43:40;-2.40;99.90
43143;DHT22;28750;59.842;17.584;2023-01-20T04:46:13;-2.50;99.90
43143;DHT22;28750;59.842;17.584;2023-01-20T04:48:41;-2.50;99.90
43143;DHT22;28750;59.842;17.584;2023-01-20T04:51:07;-2.50;99.90
43143;DHT22;28750;59.842;17.584;2023-01-20T04:53:34;-2.40;99.90
43143;DHT22;28750;59.842;17.584;2023-01-20T04:56:01;-2.20;99.90
43143;DHT22;28750;59.842;17.584;2023-01-20T04:58:28;-2.10;99.90
43143;DHT22;28750;59.842;17.584;2023-01-20T05:00:55;-2.20;99.90
43143;DHT22;28750;59.842;17.584;2023-01-20T05:03:22;-2.20;99.90
43143;DHT22;28750;59.842;17.584;2023-01-20T05:05:53;-2.00;99.90
43143;DHT22;28750;59.842;17.584;2023-01-20T05:08:20;-2.00;99.90
43143;DHT22;28750;59.842;17.584;2023-01-20T05:10:47;-2.10;99.90
43143;DHT22;28750;59.842;17.584;2023-01-20T05:13:14;-2.00;99.90
43143;DHT22;28750;59.842;17.584;2023-01-20T05:15:42;-1.90;99.90
43143;DHT22;28750;59.842;17.584;2023-01-20T05:18:09;-1.90;99.90
43143;DHT22;28750;59.842;17.584;2023-01-20T05:20:36;-1.70;99.90
43143;DHT22;28750;59.842;17.584;2023-01-20T05:23:03;-1.80;99.90
43143;DHT22;28750;59.842;17.584;2023-01-20T05:25:31;-1.80;99.90
43143;DHT22;28750;59.842;17.584;2023-01-20T05:27:58;-1.80;99.90
43143;DHT22;28750;59.842;17.584;2023-01-20T05:30:25;-1.80;99.90
43143;DHT22;28750;59.842;17.584;2023-01-20T05:32:52;-1.70;99.90
43143;DHT22;28750;59.842;17.584;2023-01-20T05:35:19;-1.60;99.90
43143;DHT22;28750;59.842;17.584;2023-01-20T05:37:46;-1.70;99.90
43143;DHT22;28750;59.842;17.584;2023-01-20T05:40:13;-1.70;99.90
43143;DHT22;28750;59.842;17.584;2023-01-20T05:42:40;-1.70;99.90
43143;DHT22;28750;59.842;17.584;2023-01-20T05:45:07;-1.70;99.90
43143;DHT22;28750;59.842;17.584;2023-01-20T05:47:34;-1.60;99.90
43143;DHT22;28750;59.842;17.584;2023-01-20T05:50:02;-1.50;99.90
43143;DHT22;28750;59.842;17.584;2023-01-20T05:52:29;-1.50;99.90
43143;DHT22;28750;59.842;17.584;2023-01-20T05:54:56;-1.60;99.90
43143;DHT22;28750;59.842;17.584;2023-01-20T05:57:24;-1.50;99.90
43143;DHT22;28750;59.842;17.584;2023-01-20T05:59:51;-1.50;99.90
43143;DHT22;28750;59.842;17.584;2023-01-20T06:02:20;-1.40;99.90
43143;DHT22;28750;59.842;17.584;2023-01-20T06:04:47;-1.40;99.90
43143;DHT22;28750;59.842;17.584;2023-01-20T06:07:14;-1.40;99.90
43143;DHT22;28750;59.842;17.584;2023-01-20T06:09:41;-1.30;99.90
43143;DHT22;28750;59.842;17.584;2023-01-20T06:12:08;-1.30;99.90
43143;DHT22;28750;59.842;17.584;2023-01-20T06:14:35;-1.30;99.90
43143;DHT22;28750;59.842;17.584;2023-01-20T06:17:02;-1.10;99.90
43143;DHT22;28750;59.842;17.584;2023-01-20T06:19:29;-0.90;99.90
43143;DHT22;28750;59.842;17.584;2023-01-20T06:21:56;-0.80;99.90
43143;DHT22;28750;59.842;17.584;2023-01-20T06:24:23;-0.80;99.90
43143;DHT22;28750;59.842;17.584;2023-01-20T06:26:50;-0.70;99.90
43143;DHT22;28750;59.842;17.584;2023-01-20T06:29:17;-0.80;99.90
43143;DHT22;28750;59.842;17.584;2023-01-20T06:31:44;-0.80;99.90
43143;DHT22;28750;59.842;17.584;2023-01-20T06:34:11;-0.70;99.90
43143;DHT22;28750;59.842;17.584;2023-01-20T06:36:38;-0.60;99.90
43143;DHT22;28750;59.842;17.584;2023-01-20T06:39:06;-0.70;99.90
43143;DHT22;28750;59.842;17.584;2023-01-20T06:41:33;-0.60;99.90
43143;DHT22;28750;59.842;17.584;2023-01-20T06:43:59;-0.70;99.90
43143;DHT22;28750;59.842;17.584;2023-01-20T06:46:26;-0.60;99.90
43143;DHT22;28750;59.842;17.584;2023-01-20T06:48:53;-0.70;99.90
43143;DHT22;28750;59.842;17.584;2023-01-20T06:51:25;-0.60;99.90
43143;DHT22;28750;59.842;17.584;2023-01-20T06:53:53;-0.60;99.90
43143;DHT22;28750;59.842;17.584;2023-01-20T06:56:20;-0.50;99.90
43143;DHT22;28750;59.842;17.584;2023-01-20T06:58:47;-0.50;99.90
43143;DHT22;28750;59.842;17.584;2023-01-20T07:01:21;-0.60;99.90
43143;DHT22;28750;59.842;17.584;2023-01-20T07:03:49;-0.70;99.90
43143;DHT22;28750;59.842;17.584;2023-01-20T07:06:34;-0.70;99.90
43143;DHT22;28750;59.842;17.584;2023-01-20T07:09:04;-0.70;99.90
43143;DHT22;28750;59.842;17.584;2023-01-20T07:11:31;-0.80;99.90
43143;DHT22;28750;59.842;17.584;2023-01-20T07:14:00;-0.80;99.90
43143;DHT22;28750;59.842;17.584;2023-01-20T07:16:27;-0.80;99.90
43143;DHT22;28750;59.842;17.584;2023-01-20T07:18:54;-0.80;99.90
43143;DHT22;28750;59.842;17.584;2023-01-20T07:21:22;-0.80;99.90
43143;DHT22;28750;59.842;17.584;2023-01-20T07:23:49;-0.80;99.90
43143;DHT22;28750;59.842;17.584;2023-01-20T07:26:19;-0.70;99.90
43143;DHT22;28750;59.842;17.584;2023-01-20T07:28:47;-0.60;99.90
43143;DHT22;28750;59.842;17.584;2023-01-20T07:31:16;-0.50;99.90
43143;DHT22;28750;59.842;17.584;2023-01-20T07:33:43;-0.60;99.90
43143;DHT22;28750;59.842;17.584;2023-01-20T07:36:12;-0.60;99.90
43143;DHT22;28750;59.842;17.584;2023-01-20T07:38:39;-0.50;99.90
43143;DHT22;28750;59.842;17.584;2023-01-20T07:41:09;-0.50;99.90
43143;DHT22;28750;59.842;17.584;2023-01-20T07:43:44;-0.60;99.90
43143;DHT22;28750;59.842;17.584;2023-01-20T07:46:11;-0.50;99.90
43143;DHT22;28750;59.842;17.584;2023-01-20T07:48:38;-0.50;99.90
43143;DHT22;28750;59.842;17.584;2023-01-20T07:51:10;-0.50;99.90
43143;DHT22;28750;59.842;17.584;2023-01-20T07:53:38;-0.40;99.90
43143;DHT22;28750;59.842;17.584;2023-01-20T07:56:09;-0.50;99.90
43143;DHT22;28750;59.842;17.584;2023-01-20T07:58:36;-0.50;99.90
43143;DHT22;28750;59.842;17.584;2023-01-20T08:01:06;-0.50;99.90
43143;DHT22;28750;59.842;17.584;2023-01-20T08:03:34;-0.50;99.90
43143;DHT22;28750;59.842;17.584;2023-01-20T08:06:12;-0.50;99.90
43143;DHT22;28750;59.842;17.584;2023-01-20T08:08:40;-0.40;99.90
43143;DHT22;28750;59.842;17.584;2023-01-20T08:11:08;-0.40;99.90
43143;DHT22;28750;59.842;17.584;2023-01-20T08:13:36;-0.40;99.90
43143;DHT22;28750;59.842;17.584;2023-01-20T08:16:06;-0.30;99.90
43143;DHT22;28750;59.842;17.584;2023-01-20T08:18:34;-0.30;99.90
43143;DHT22;28750;59.842;17.584;2023-01-20T08:21:03;-0.30;99.90
43143;DHT22;28750;59.842;17.584;2023-01-20T08:23:35;-0.30;99.90
43143;DHT22;28750;59.842;17.584;2023-01-20T08:26:05;-0.30;99.90
43143;DHT22;28750;59.842;17.584;2023-01-20T08:28:33;-0.30;99.90
43143;DHT22;28750;59.842;17.584;2023-01-20T08:31:15;-0.20;99.90
43143;DHT22;28750;59.842;17.584;2023-01-20T08:33:43;-0.10;99.90
43143;DHT22;28750;59.842;17.584;2023-01-20T08:36:16;0.00;99.90
43143;DHT22;28750;59.842;17.584;2023-01-20T08:38:44;0.00;99.90
43143;DHT22;28750;59.842;17.584;2023-01-20T08:41:21;0.10;99.90
43143;DHT22;28750;59.842;17.584;2023-01-20T08:43:48;0.20;99.90
43143;DHT22;28750;59.842;17.584;2023-01-20T08:46:17;0.10;99.90
43143;DHT22;28750;59.842;17.584;2023-01-20T08:48:45;0.10;99.90
43143;DHT22;28750;59.842;17.584;2023-01-20T08:51:14;0.00;99.90
43143;DHT22;28750;59.842;17.584;2023-01-20T08:53:42;0.00;99.90
43143;DHT22;28750;59.842;17.584;2023-01-20T08:56:10;0.10;99.90
43143;DHT22;28750;59.842;17.584;2023-01-20T08:58:37;0.20;99.90
43143;DHT22;28750;59.842;17.584;2023-01-20T09:01:15;0.20;99.90
43143;DHT22;28750;59.842;17.584;2023-01-20T09:03:43;0.20;99.90
43143;DHT22;28750;59.842;17.584;2023-01-20T09:06:11;0.20;99.90
43143;DHT22;28750;59.842;17.584;2023-01-20T09:08:38;0.20;99.90
43143;DHT22;28750;59.842;17.584;2023-01-20T09:11:11;0.10;99.90
43143;DHT22;28750;59.842;17.584;2023-01-20T09:13:39;0.20;99.90
43143;DHT22;28750;59.842;17.584;2023-01-20T09:16:06;0.20;99.90
43143;DHT22;28750;59.842;17.584;2023-01-20T09:18:34;0.30;99.90
43143;DHT22;28750;59.842;17.584;2023-01-20T09:21:01;0.30;99.90
43143;DHT22;28750;59.842;17.584;2023-01-20T09:23:32;0.40;99.90
43143;DHT22;28750;59.842;17.584;2023-01-20T09:26:00;0.40;99.90
43143;DHT22;28750;59.842;17.584;2023-01-20T09:28:29;0.30;99.90
43143;DHT22;28750;59.842;17.584;2023-01-20T09:31:07;0.30;99.90
43143;DHT22;28750;59.842;17.584;2023-01-20T09:33:36;0.40;99.90
43143;DHT22;28750;59.842;17.584;2023-01-20T09:36:07;0.40;99.90
43143;DHT22;28750;59.842;17.584;2023-01-20T09:38:34;0.40;99.90
43143;DHT22;28750;59.842;17.584;2023-01-20T09:41:31;0.50;99.90
43143;DHT22;28750;59.842;17.584;2023-01-20T09:44:46;0.40;99.90
43143;DHT22;28750;59.842;17.584;2023-01-20T09:52:53;0.50;99.90
43143;DHT22;28750;59.842;17.584;2023-01-20T10:00:46;0.50;99.90
43143;DHT22;28750;59.842;17.584;2023-01-20T10:03:26;0.60;99.90
43143;DHT22;28750;59.842;17.584;2023-01-20T10:06:05;0.60;99.90
43143;DHT22;28750;59.842;17.584;2023-01-20T10:08:50;0.60;99.90
43143;DHT22;28750;59.842;17.584;2023-01-20T10:11:19;0.60;99.90
43143;DHT22;28750;59.842;17.584;2023-01-20T10:14:28;0.60;99.90
43143;DHT22;28750;59.842;17.584;2023-01-20T10:17:03;0.60;99.90
43143;DHT22;28750;59.842;17.584;2023-01-20T10:19:38;0.60;99.90
43143;DHT22;28750;59.842;17.584;2023-01-20T10:27:59;0.70;99.90
43143;DHT22;28750;59.842;17.584;2023-01-20T10:30:32;0.80;99.90
43143;DHT22;28750;59.842;17.584;2023-01-20T10:33:09;0.80;99.90
43143;DHT22;28750;59.842;17.584;2023-01-20T10:35:57;0.80;99.90
43143;DHT22;28750;59.842;17.584;2023-01-20T10:41:18;0.90;99.90
43143;DHT22;28750;59.842;17.584;2023-01-20T10:43:48;1.00;99.90
43143;DHT22;28750;59.842;17.584;2023-01-20T10:57:21;1.00;99.90
43143;DHT22;28750;59.842;17.584;2023-01-20T10:59:54;1.00;99.90
43143;DHT22;28750;59.842;17.584;2023-01-20T11:02:29;0.90;99.90
43143;DHT22;28750;59.842;17.584;2023-01-20T11:04:58;0.90;99.90
43143;DHT22;28750;59.842;17.584;2023-01-20T11:07:26;1.00;99.90
43143;DHT22;28750;59.842;17.584;2023-01-20T11:09:54;0.90;99.90
43143;DHT22;28750;59.842;17.584;2023-01-20T11:12:24;0.90;99.90
43143;DHT22;28750;59.842;17.584;2023-01-20T11:14:54;0.90;99.90
43143;DHT22;28750;59.842;17.584;2023-01-20T11:17:21;0.90;99.90
43143;DHT22;28750;59.842;17.584;2023-01-20T11:19:54;0.90;99.90
43143;DHT22;28750;59.842;17.584;2023-01-20T11:24:57;0.90;99.90
43143;DHT22;28750;59.842;17.584;2023-01-20T11:27:35;0.90;99.90
43143;DHT22;28750;59.842;17.584;2023-01-20T11:30:05;0.90;99.90
43143;DHT22;28750;59.842;17.584;2023-01-20T11:32:35;0.90;99.90
43143;DHT22;28750;59.842;17.584;2023-01-20T11:35:19;0.90;99.90
43143;DHT22;28750;59.842;17.584;2023-01-20T11:37:47;0.80;99.90
43143;DHT22;28750;59.842;17.584;2023-01-20T11:40:17;0.90;99.90
43143;DHT22;28750;59.842;17.584;2023-01-20T11:42:46;0.70;99.90
43143;DHT22;28750;59.842;17.584;2023-01-20T11:45:32;0.70;99.90
43143;DHT22;28750;59.842;17.584;2023-01-20T11:50:47;0.70;99.90
43143;DHT22;28750;59.842;17.584;2023-01-20T11:53:16;0.70;99.90
43143;DHT22;28750;59.842;17.584;2023-01-20T11:55:55;0.70;99.90
43143;DHT22;28750;59.842;17.584;2023-01-20T11:58:25;0.70;99.90
43143;DHT22;28750;59.842;17.584;2023-01-20T12:01:23;0.80;99.90
43143;DHT22;28750;59.842;17.584;2023-01-20T12:07:04;0.80;99.90
43143;DHT22;28750;59.842;17.584;2023-01-20T12:09:44;0.80;99.90
43143;DHT22;28750;59.842;17.584;2023-01-20T12:23:17;1.10;99.90
43143;DHT22;28750;59.842;17.584;2023-01-20T12:25:57;1.10;99.90
43143;DHT22;28750;59.842;17.584;2023-01-20T12:31:21;1.10;99.90
43143;DHT22;28750;59.842;17.584;2023-01-20T12:44:57;1.20;99.90
43143;DHT22;28750;59.842;17.584;2023-01-20T12:48:03;1.20;99.90
43143;DHT22;28750;59.842;17.584;2023-01-20T12:59:49;1.20;99.90
43143;DHT22;28750;59.842;17.584;2023-01-20T13:02:57;1.20;99.90
43143;DHT22;28750;59.842;17.584;2023-01-20T13:08:50;1.30;99.90
43143;DHT22;28750;59.842;17.584;2023-01-20T13:14:07;1.30;99.90
43143;DHT22;28750;59.842;17.584;2023-01-20T13:17:11;1.30;99.90
43143;DHT22;28750;59.842;17.584;2023-01-20T13:19:42;1.30;99.90
43143;DHT22;28750;59.842;17.584;2023-01-20T13:22:18;1.20;99.90
43143;DHT22;28750;59.842;17.584;2023-01-20T13:24:48;1.30;99.90
43143;DHT22;28750;59.842;17.584;2023-01-20T13:27:24;1.40;99.90
43143;DHT22;28750;59.842;17.584;2023-01-20T13:29:56;1.30;99.90
43143;DHT22;28750;59.842;17.584;2023-01-20T13:32:31;1.40;99.90
43143;DHT22;28750;59.842;17.584;2023-01-20T13:35:36;1.30;99.90
43143;DHT22;28750;59.842;17.584;2023-01-20T13:37:52;1.30;99.90
43143;DHT22;28750;59.842;17.584;2023-01-20T13:48:36;1.30;99.90
43143;DHT22;28750;59.842;17.584;2023-01-20T13:53:55;1.30;99.90
43143;DHT22;28750;59.842;17.584;2023-01-20T13:56:40;1.40;99.90
43143;DHT22;28750;59.842;17.584;2023-01-20T13:59:08;1.40;99.90
43143;DHT22;28750;59.842;17.584;2023-01-20T14:01:34;1.40;99.90
43143;DHT22;28750;59.842;17.584;2023-01-20T14:04:17;1.70;99.90
43143;DHT22;28750;59.842;17.584;2023-01-20T14:06:47;1.70;99.90
43143;DHT22;28750;59.842;17.584;2023-01-20T14:09:19;1.50;99.90
43143;DHT22;28750;59.842;17.584;2023-01-20T14:11:50;1.40;99.90
43143;DHT22;28750;59.842;17.584;2023-01-20T14:14:21;1.40;99.90
43143;DHT22;28750;59.842;17.584;2023-01-20T14:16:50;1.40;99.90
43143;DHT22;28750;59.842;17.584;2023-01-20T14:19:31;1.40;99.90
43143;DHT22;28750;59.842;17.584;2023-01-20T14:22:15;1.40;99.90
43143;DHT22;28750;59.842;17.584;2023-01-20T14:24:49;1.40;99.90
43143;DHT22;28750;59.842;17.584;2023-01-20T14:27:21;1.30;99.90
43143;DHT22;28750;59.842;17.584;2023-01-20T14:29:53;1.40;99.90
43143;DHT22;28750;59.842;17.584;2023-01-20T14:32:31;1.40;99.90
43143;DHT22;28750;59.842;17.584;2023-01-20T14:35:01;1.40;99.90
43143;DHT22;28750;59.842;17.584;2023-01-20T14:37:37;1.40;99.90
43143;DHT22;28750;59.842;17.584;2023-01-20T14:40:29;1.40;99.90
43143;DHT22;28750;59.842;17.584;2023-01-20T14:43:03;1.30;99.90
43143;DHT22;28750;59.842;17.584;2023-01-20T14:45:41;1.40;99.90
43143;DHT22;28750;59.842;17.584;2023-01-20T14:48:10;1.30;99.90
43143;DHT22;28750;59.842;17.584;2023-01-20T14:50:38;1.30;99.90
43143;DHT22;28750;59.842;17.584;2023-01-20T14:53:05;1.40;99.90
43143;DHT22;28750;59.842;17.584;2023-01-20T14:55:36;1.30;99.90
43143;DHT22;28750;59.842;17.584;2023-01-20T14:58:23;1.30;99.90
43143;DHT22;28750;59.842;17.584;2023-01-20T15:00:50;1.30;99.90
43143;DHT22;28750;59.842;17.584;2023-01-20T15:03:22;1.30;99.90
43143;DHT22;28750;59.842;17.584;2023-01-20T15:06:02;1.30;99.90
43143;DHT22;28750;59.842;17.584;2023-01-20T15:21:49;1.20;99.90
43143;DHT22;28750;59.842;17.584;2023-01-20T15:26:49;1.10;99.90
43143;DHT22;28750;59.842;17.584;2023-01-20T15:29:31;1.20;99.90
43143;DHT22;28750;59.842;17.584;2023-01-20T15:32:02;1.20;99.90
43143;DHT22;28750;59.842;17.584;2023-01-20T15:34:37;1.10;99.90
43143;DHT22;28750;59.842;17.584;2023-01-20T15:37:17;1.10;99.90
43143;DHT22;28750;59.842;17.584;2023-01-20T15:39:47;1.20;99.90
43143;DHT22;28750;59.842;17.584;2023-01-20T15:42:20;1.10;99.90
43143;DHT22;28750;59.842;17.584;2023-01-20T15:44:48;1.20;99.90
43143;DHT22;28750;59.842;17.584;2023-01-20T15:47:24;1.20;99.90
43143;DHT22;28750;59.842;17.584;2023-01-20T15:49:58;1.20;99.90
43143;DHT22;28750;59.842;17.584;2023-01-20T15:52:29;1.30;99.90
43143;DHT22;28750;59.842;17.584;2023-01-20T15:54:57;1.20;99.90
43143;DHT22;28750;59.842;17.584;2023-01-20T15:57:28;1.20;99.90
43143;DHT22;28750;59.842;17.584;2023-01-20T15:59:56;1.30;99.90
43143;DHT22;28750;59.842;17.584;2023-01-20T16:02:24;1.20;99.90
43143;DHT22;28750;59.842;17.584;2023-01-20T16:04:51;1.30;99.90
43143;DHT22;28750;59.842;17.584;2023-01-20T16:07:20;1.20;99.90
43143;DHT22;28750;59.842;17.584;2023-01-20T16:09:48;1.20;99.90
43143;DHT22;28750;59.842;17.584;2023-01-20T16:12:18;1.20;99.90
43143;DHT22;28750;59.842;17.584;2023-01-20T16:14:48;1.20;99.90
43143;DHT22;28750;59.842;17.584;2023-01-20T16:17:20;1.20;99.90
43143;DHT22;28750;59.842;17.584;2023-01-20T16:19:50;1.20;99.90
43143;DHT22;28750;59.842;17.584;2023-01-20T16:22:19;1.20;99.90
43143;DHT22;28750;59.842;17.584;2023-01-20T16:24:46;1.20;99.90
43143;DHT22;28750;59.842;17.584;2023-01-20T16:27:18;1.10;99.90
43143;DHT22;28750;59.842;17.584;2023-01-20T16:29:46;1.10;99.90
43143;DHT22;28750;59.842;17.584;2023-01-20T16:32:13;1.10;99.90
43143;DHT22;28750;59.842;17.584;2023-01-20T16:34:40;1.10;99.90
43143;DHT22;28750;59.842;17.584;2023-01-20T16:37:13;1.20;99.90
43143;DHT22;28750;59.842;17.584;2023-01-20T16:39:40;1.20;99.90
43143;DHT22;28750;59.842;17.584;2023-01-20T16:42:10;1.10;99.90
43143;DHT22;28750;59.842;17.584;2023-01-20T16:44:37;1.10;99.90
43143;DHT22;28750;59.842;17.584;2023-01-20T16:47:05;1.10;99.90
43143;DHT22;28750;59.842;17.584;2023-01-20T16:49:33;1.10;99.90
43143;DHT22;28750;59.842;17.584;2023-01-20T16:52:00;1.20;99.90
43143;DHT22;28750;59.842;17.584;2023-01-20T16:54:26;1.20;99.90
43143;DHT22;28750;59.842;17.584;2023-01-20T16:56:53;1.10;99.90
43143;DHT22;28750;59.842;17.584;2023-01-20T16:59:20;1.20;99.90
43143;DHT22;28750;59.842;17.584;2023-01-20T17:01:47;1.10;99.90
43143;DHT22;28750;59.842;17.584;2023-01-20T17:04:14;1.20;99.90
43143;DHT22;28750;59.842;17.584;2023-01-20T17:06:41;1.20;99.90
43143;DHT22;28750;59.842;17.584;2023-01-20T17:09:09;1.10;99.90
43143;DHT22;28750;59.842;17.584;2023-01-20T17:11:37;1.10;99.90
43143;DHT22;28750;59.842;17.584;2023-01-20T17:14:06;1.10;99.90
43143;DHT22;28750;59.842;17.584;2023-01-20T17:16:33;1.20;99.90
43143;DHT22;28750;59.842;17.584;2023-01-20T17:19:01;1.10;99.90
43143;DHT22;28750;59.842;17.584;2023-01-20T17:21:31;1.10;99.90
43143;DHT22;28750;59.842;17.584;2023-01-20T17:24:01;1.10;99.90
43143;DHT22;28750;59.842;17.584;2023-01-20T17:26:28;1.20;99.90
43143;DHT22;28750;59.842;17.584;2023-01-20T17:28:58;1.20;99.90
43143;DHT22;28750;59.842;17.584;2023-01-20T17:31:26;1.20;99.90
43143;DHT22;28750;59.842;17.584;2023-01-20T17:33:53;1.20;99.90
43143;DHT22;28750;59.842;17.584;2023-01-20T17:36:20;1.20;99.90
43143;DHT22;28750;59.842;17.584;2023-01-20T17:38:47;1.20;99.90
43143;DHT22;28750;59.842;17.584;2023-01-20T17:41:14;1.20;99.90
43143;DHT22;28750;59.842;17.584;2023-01-20T17:43:42;1.20;99.90
43143;DHT22;28750;59.842;17.584;2023-01-20T17:46:16;1.20;99.90
43143;DHT22;28750;59.842;17.584;2023-01-20T17:48:44;1.20;99.90
43143;DHT22;28750;59.842;17.584;2023-01-20T17:51:14;1.20;99.90
43143;DHT22;28750;59.842;17.584;2023-01-20T17:53:41;1.20;99.90
43143;DHT22;28750;59.842;17.584;2023-01-20T17:56:09;1.20;99.90
43143;DHT22;28750;59.842;17.584;2023-01-20T17:58:37;1.20;99.90
43143;DHT22;28750;59.842;17.584;2023-01-20T18:01:25;1.20;99.90
43143;DHT22;28750;59.842;17.584;2023-01-20T18:03:54;1.10;99.90
43143;DHT22;28750;59.842;17.584;2023-01-20T18:06:22;1.10;99.90
43143;DHT22;28750;59.842;17.584;2023-01-20T18:08:52;1.10;99.90
43143;DHT22;28750;59.842;17.584;2023-01-20T18:11:20;1.20;99.90